ハリファックス の空港の天気 - METARとTAF

ハリファックス国際空港 ( CYHZ / YHZ ) - カナダ ノバスコシア州ハリファックス
飛行場実況気象(Metar)
観測時間10/19 15:00 ADT (10/19 18:00 UTC)
風向・風速西 4m/s
視程10km以上
天気現象
少しの雲 雲底高度 1650m
少しの雲 雲底高度 8230m
気温5℃
湿度45%
気圧1017.6hPa
METARCYHZ 191800Z 27007KT 250V320 15SM FEW054 FEW270 05/M06 A3003 RMK CU1CI1 SLP176
過去の天気等 Google飛行場航空写真 Wunderground天気予報

過去48時間のMETAR

飛行場予報(TAF)
発表時間: 10/19 14:42 ADT (10/19 17:42 UTC)
予報対象時間: 19日15時 ADT ~ 20日15時 ADT
風向・風速西北西 6m/s 瞬間風速 11m/s
視程10km以上
少しの雲 雲底高度 1520m
19日21時 ADT から
風向・風速南 5m/s 瞬間風速 10m/s
視程10km以上
全天の4割程度の雲 雲底高度 610m
19日21時 ADT ~ 19日24時 ADT に一時的に
全天の8割程度の雲 雲底高度 610m
20日0時 ADT から
風向・風速南 6m/s 瞬間風速 11m/s
視程10km以上
全天を覆う雲 雲底高度 610m
20日0時 ADT ~ 20日6時 ADT に一時的に
全天を覆う雲 雲底高度 760m
20日6時 ADT から
風向・風速南 8m/s 瞬間風速 13m/s
視程10km以上
全天の8割程度の雲 雲底高度 910m
全天を覆う雲 雲底高度 4880m
20日10時 ADT から
風向・風速南西 9m/s 瞬間風速 14m/s
視程10km以上
天気現象弱い雨 もや
少しの雲 雲底高度 120m
全天を覆う雲 雲底高度 610m
20日12時 ADT から
風向・風速南西 10m/s 瞬間風速 15m/s
視程3220m
天気現象雨 もや
全天の8割程度の雲 雲底高度 120m
全天を覆う雲 雲底高度 300m
20日12時 ADT から 確率 40% で
視程1610m
天気現象強い雨 もや
全天を覆う雲 雲底高度 90m
TAF CYHZ 191742Z 1918/2018 30012G22KT P6SM FEW050
FM200000 19010G20KT P6SM SCT020
TEMPO 2000/2003 BKN020
FM200300 19012G22KT P6SM OVC020
TEMPO 2003/2009 OVC025
FM200900 19015G25KT P6SM BKN030 OVC160
FM201300 22018G28KT 6SM -RA BR FEW004 OVC020
FM201500 22020G30KT 2SM RA BR BKN004 OVC010
PROB40 2015/2018 1SM +RA BR OVC003 RMK NXT FCST BY 192100Z